Terminal Aerodrome Forecast
Issued by NWS Corpus Christi, TX

Home | Current Version | Previous Version | Text Only | Print | Product List | Glossary On
Versions: 1 2 3 4 5 6 7 8 9 10 11 12 13 14
346
FTUS44 KCRP 181730
TAFVCT
TAF
KVCT 181730Z 1818/1918 21008KT P6SM SCT040
     FM182000 17012KT P6SM SCT050
     FM190100 15007KT P6SM SKC
     FM190900 VRB03KT P6SM SCT015
      TEMPO 1910/1913 5SM BR BKN015
     FM191400 19006KT P6SM SCT025=

USA.gov is the U.S. government's official web portal to all federal, state and local government web resources and services.